Portada
METAR-TAF:

METAR-TAF

Aeropuertos :

Quincy Regional Airport (Baldwin Field)

Quincy, Illinois, Estados Unidos

latitud: 39-56-33N, longitud: 091-11-40W, altitud: 234 m

Observación

El informe se hizo hace 24 minutos, a las 23:54 UTC
Viento 6 kt del oeste-noroeste
Temperatura -3°C
Humedad 74%
Presión 1020 hPa
Visibilidad: 16.1 km
Cielo despejado

METAR: KUIN 302354Z AUTO 29006KT 10SM CLR M03/M07 A3012 RMK AO2 SLP209 T10331072 10011 21033 52007

Hora: 18:18 (00:18 UTC)

Pronóstico

El informe se hizo hace 50 minutos, a las 23:28 UTC
Pronóstico válido del 01 a las 00 UTC al 01 a las 24 UTC
Viento 7 kt del noroeste
Visibilidad: 10 km
Escasas nubes a una altura de 4000 ft
A partir de las 01 a las 0300 UTC
Viento 6 kt del noroeste
Visibilidad: 10 km
Cielo despejado

TAF: KUIN 302328Z 0100/0124 32007KT P6SM FEW040 FM010300 32006KT P6SM SKC

Observaciones y pronósticos meteorológicos de más de 4000 aeropuertos (mensajes METAR y TAF).

Los puntos amarillos y rojos representan las estaciones disponibles.

Ponga el ratón en el punto deseado para ver el nombre de la estación.

Haga clic para ver las observaciones y los pronósticos meteorológicos.

Para cambiar el mapa : haga clic en los botones verdes con una cruz de color negro para hacer un zoom, en el botón verde con un guión para alejar o en las flechas verdes para mapas adyacentes.


METAR-TAF: